Time;durP1;ratioP1;P1;durP2;ratioP2;P2;SDS_P1;SDS_P2;PMS_P1;PMS_P2;Temp;Humidity;BMP_temperature;BMP_pressure;BME280_temperature;BME280_humidity;BME280_pressure;Samples;Min_cycle;Max_cycle;Signal;HPM_P1;HPM_P2
2021/09/09 00:01:08;;;;;;;10.23;9.07;;;;;;;21.24;73.56;96053.00;4974714;28;20186;-67
2021/09/09 00:03:33;;;;;;;8.87;8.07;;;;;;;21.26;73.45;96050.03;4974295;28;20174;-68
2021/09/09 00:05:59;;;;;;;10.53;9.07;;;;;;;21.32;73.09;96049.63;4974870;28;20665;-69
2021/09/09 00:08:24;;;;;;;10.00;9.10;;;;;;;21.47;72.53;96051.16;4973678;28;20194;-68
2021/09/09 00:10:50;;;;;;;8.27;7.57;;;;;;;21.58;72.15;96063.22;4974978;28;20225;-69
2021/09/09 00:13:15;;;;;;;8.97;8.27;;;;;;;21.55;72.09;96057.69;4982484;28;20232;-67
2021/09/09 00:15:41;;;;;;;9.00;8.10;;;;;;;21.55;71.81;96063.81;4994027;28;20217;-67
2021/09/09 00:18:06;;;;;;;8.07;7.37;;;;;;;21.60;71.67;96058.34;4979747;28;20182;-67
2021/09/09 00:20:32;;;;;;;9.00;8.20;;;;;;;21.67;71.42;96058.72;4974684;28;20177;-69
2021/09/09 00:22:57;;;;;;;7.97;7.37;;;;;;;21.72;71.36;96047.94;4974265;28;20579;-67
2021/09/09 00:25:23;;;;;;;9.80;8.90;;;;;;;21.82;70.77;96050.38;4974638;28;20190;-67
2021/09/09 00:27:49;;;;;;;9.47;8.70;;;;;;;21.74;70.58;96050.28;4974454;28;20246;-68
2021/09/09 00:30:15;;;;;;;9.30;8.50;;;;;;;21.65;71.19;96042.19;4974513;28;20445;-68
2021/09/09 00:32:40;;;;;;;9.93;8.40;;;;;;;21.72;70.97;96041.78;4974009;28;20269;-69
2021/09/09 00:35:06;;;;;;;8.90;8.10;;;;;;;21.67;71.02;96045.34;4974418;28;20202;-67
2021/09/09 00:37:31;;;;;;;13.30;8.47;;;;;;;21.49;71.67;96046.31;4974415;28;20189;-67
2021/09/09 00:39:57;;;;;;;11.30;8.50;;;;;;;21.54;71.80;96042.75;4974163;28;20182;-67
2021/09/09 00:42:22;;;;;;;9.80;9.00;;;;;;;21.60;71.42;96039.63;4974437;28;20178;-67
2021/09/09 00:44:47;;;;;;;9.80;9.00;;;;;;;21.67;71.23;96045.34;4974066;28;20190;-68
2021/09/09 00:47:13;;;;;;;9.30;8.43;;;;;;;21.55;71.44;96046.97;4974313;28;20201;-68
2021/09/09 00:49:42;;;;;;;10.20;9.20;;;;;;;21.48;71.69;96045.53;4974315;28;20249;-67
2021/09/09 00:52:11;;;;;;;9.60;8.80;;;;;;;21.42;71.98;96046.72;4974468;28;20210;-68
2021/09/09 00:54:36;;;;;;;9.83;8.93;;;;;;;21.27;72.50;96040.94;4973966;28;20437;-68
2021/09/09 00:57:04;;;;;;;8.90;8.10;;;;;;;21.33;72.53;96037.84;4974386;28;20881;-69
2021/09/09 00:59:32;;;;;;;11.47;7.93;;;;;;;21.33;72.36;96037.03;4973702;28;20182;-67
2021/09/09 01:01:58;;;;;;;9.40;8.60;;;;;;;21.30;72.42;96034.97;4974129;28;20528;-68
2021/09/09 01:04:23;;;;;;;8.90;8.20;;;;;;;21.20;72.84;96043.22;4973832;28;20952;-68
2021/09/09 01:06:49;;;;;;;9.20;8.40;;;;;;;21.26;72.57;96039.34;4974149;28;20198;-67
2021/09/09 01:09:15;;;;;;;10.80;9.37;;;;;;;21.17;73.01;96039.28;4974373;28;20527;-69
2021/09/09 01:11:40;;;;;;;9.40;8.47;;;;;;;21.17;73.39;96044.63;4974081;28;20534;-67
2021/09/09 01:14:08;;;;;;;10.13;9.33;;;;;;;21.16;73.06;96039.56;4973921;28;20193;-67
2021/09/09 01:16:35;;;;;;;10.27;9.23;;;;;;;21.22;73.08;96031.13;4974098;28;20645;-68
2021/09/09 01:19:01;;;;;;;9.77;8.90;;;;;;;21.22;73.31;96028.47;4974283;28;20499;-68
2021/09/09 01:21:27;;;;;;;10.30;9.33;;;;;;;21.32;72.91;96030.13;4974089;28;20751;-67
2021/09/09 01:23:54;;;;;;;9.13;8.30;;;;;;;21.30;73.00;96027.75;4973775;28;20453;-67
2021/09/09 01:26:20;;;;;;;9.97;9.03;;;;;;;21.40;72.30;96024.06;4973820;28;20202;-67
2021/09/09 01:28:45;;;;;;;9.70;8.80;;;;;;;21.44;72.59;96019.69;4974103;28;20909;-67
2021/09/09 01:31:13;;;;;;;10.20;9.30;;;;;;;21.41;72.31;96021.06;4976407;28;20189;-69
2021/09/09 01:33:38;;;;;;;10.40;9.30;;;;;;;21.33;72.66;96019.13;4977233;28;20170;-68
2021/09/09 01:36:04;;;;;;;11.00;10.00;;;;;;;21.36;72.64;96023.09;4977635;28;20973;-68
2021/09/09 01:38:29;;;;;;;9.67;8.77;;;;;;;21.23;73.26;96018.56;4977431;28;20185;-67
2021/09/09 01:40:55;;;;;;;9.90;8.93;;;;;;;21.25;73.22;96022.50;4977493;28;20189;-67
2021/09/09 01:43:20;;;;;;;10.47;9.43;;;;;;;21.43;72.65;96015.44;4976757;28;20210;-67
2021/09/09 01:45:46;;;;;;;10.13;9.20;;;;;;;21.45;72.50;96013.25;4977311;28;20193;-68
2021/09/09 01:48:11;;;;;;;10.83;9.83;;;;;;;21.48;72.32;96013.44;4977514;28;20253;-67
2021/09/09 01:50:38;;;;;;;9.40;8.50;;;;;;;21.50;72.09;96016.59;4977434;28;20174;-68
2021/09/09 01:53:04;;;;;;;9.30;8.53;;;;;;;21.55;72.06;96014.88;4976907;28;20269;-67
2021/09/09 01:55:29;;;;;;;10.47;9.47;;;;;;;21.52;72.24;96016.31;4977208;28;20983;-67
2021/09/09 01:57:54;;;;;;;9.87;9.00;;;;;;;21.24;73.28;96020.13;4976965;28;20630;-68
2021/09/09 02:00:20;;;;;;;11.27;10.10;;;;;;;21.27;73.39;96009.63;4977222;28;20166;-67
2021/09/09 02:02:45;;;;;;;9.53;8.63;;;;;;;21.19;73.62;96001.53;4976991;28;20621;-68
2021/09/09 02:05:12;;;;;;;9.50;8.60;;;;;;;21.31;73.32;96007.94;4976976;28;20293;-67
2021/09/09 02:07:38;;;;;;;9.20;8.37;;;;;;;21.29;73.06;96010.13;4977158;28;20265;-67
2021/09/09 02:10:05;;;;;;;9.80;8.90;;;;;;;21.11;73.85;96007.59;4976800;28;20406;-67
2021/09/09 02:12:30;;;;;;;10.27;9.37;;;;;;;21.13;73.90;96011.56;4976528;28;20193;-70
2021/09/09 02:14:55;;;;;;;9.90;8.90;;;;;;;21.20;73.87;96011.13;4976432;28;20437;-68
2021/09/09 02:17:21;;;;;;;11.13;9.37;;;;;;;21.07;74.05;96007.41;4976781;28;20713;-67
2021/09/09 02:19:46;;;;;;;10.00;9.10;;;;;;;21.26;73.48;96013.41;4976898;28;20178;-67
2021/09/09 02:22:12;;;;;;;11.93;9.93;;;;;;;21.22;73.52;96009.75;4976675;28;20220;-68
2021/09/09 02:24:37;;;;;;;9.80;8.90;;;;;;;21.31;73.34;96007.94;4976209;28;20201;-67
2021/09/09 02:27:03;;;;;;;10.07;9.07;;;;;;;21.24;73.58;96009.44;4976318;28;20285;-67
2021/09/09 02:29:28;;;;;;;8.80;8.03;;;;;;;21.39;72.99;96017.13;4976050;28;20186;-68
2021/09/09 02:31:54;;;;;;;10.87;9.97;;;;;;;21.27;73.48;96006.97;4976573;28;20197;-68
2021/09/09 02:34:19;;;;;;;12.27;9.10;;;;;;;21.37;73.26;96006.75;4976160;28;20197;-68
2021/09/09 02:36:45;;;;;;;10.13;9.23;;;;;;;21.30;73.54;96005.56;4976441;28;20205;-69
2021/09/09 02:39:10;;;;;;;10.10;9.30;;;;;;;21.38;72.91;96008.31;4976390;28;20193;-68
2021/09/09 02:41:35;;;;;;;10.20;9.20;;;;;;;21.16;73.76;96005.59;4976129;28;20173;-67
2021/09/09 02:44:01;;;;;;;9.30;8.40;;;;;;;21.03;74.30;96003.78;4975769;28;20182;-67
2021/09/09 02:46:26;;;;;;;11.07;10.17;;;;;;;21.05;73.89;96001.56;4975653;28;20225;-67
2021/09/09 02:48:52;;;;;;;12.30;9.40;;;;;;;20.90;74.47;96001.09;4976403;28;20202;-69
2021/09/09 02:51:17;;;;;;;9.83;8.57;;;;;;;20.67;75.14;96005.56;4976287;28;20533;-69
2021/09/09 02:53:42;;;;;;;9.40;8.60;;;;;;;20.69;75.31;95998.03;4975896;28;20201;-67
2021/09/09 02:56:08;;;;;;;9.67;8.77;;;;;;;20.85;74.37;96003.88;4976188;28;20660;-68
2021/09/09 02:58:33;;;;;;;9.53;8.73;;;;;;;20.81;74.28;96002.88;4976065;28;20182;-68
2021/09/09 03:00:59;;;;;;;9.50;8.60;;;;;;;20.79;74.35;95997.84;4975830;28;20257;-68
2021/09/09 03:03:24;;;;;;;10.53;9.53;;;;;;;20.93;74.00;95997.81;4975631;28;20178;-67
2021/09/09 03:05:50;;;;;;;9.60;8.70;;;;;;;20.97;73.67;95990.78;4975826;28;20192;-69
2021/09/09 03:08:15;;;;;;;9.27;8.50;;;;;;;21.05;73.26;95987.44;4975804;28;20190;-67
2021/09/09 03:10:41;;;;;;;9.63;8.83;;;;;;;20.95;73.53;95985.72;4974514;28;20181;-67
2021/09/09 03:13:06;;;;;;;9.03;8.33;;;;;;;20.94;73.47;95983.38;4975339;28;20697;-67
2021/09/09 03:15:31;;;;;;;9.50;8.60;;;;;;;20.96;73.08;95989.22;4975444;28;20539;-66
2021/09/09 03:17:57;;;;;;;9.90;9.10;;;;;;;20.91;73.45;95989.28;4974425;28;20176;-68
2021/09/09 03:20:22;;;;;;;9.57;8.83;;;;;;;20.99;73.06;95986.75;4975754;28;20626;-68
2021/09/09 03:22:48;;;;;;;9.00;8.17;;;;;;;21.01;72.66;95986.44;4975302;28;20189;-68
2021/09/09 03:25:13;;;;;;;9.60;8.63;;;;;;;21.10;72.54;95988.13;4975219;28;20213;-67
2021/09/09 03:27:39;;;;;;;10.60;8.83;;;;;;;20.92;73.23;95990.88;4975465;28;20202;-67
2021/09/09 03:30:05;;;;;;;13.37;8.83;;;;;;;20.96;73.38;95979.28;4975445;28;20181;-67
2021/09/09 03:32:31;;;;;;;9.27;8.43;;;;;;;20.91;73.65;95984.75;4975566;28;20175;-68
2021/09/09 03:34:56;;;;;;;8.70;8.00;;;;;;;20.70;74.13;95980.13;4974719;28;20952;-67
2021/09/09 03:37:22;;;;;;;11.07;9.97;;;;;;;20.74;74.30;95981.13;4974911;28;20580;-68
2021/09/09 03:39:47;;;;;;;11.00;10.00;;;;;;;20.86;73.91;95979.53;4975206;28;20206;-68
2021/09/09 03:42:12;;;;;;;8.63;7.90;;;;;;;20.97;73.57;95977.41;4975340;28;20178;-69
2021/09/09 03:44:38;;;;;;;9.83;8.83;;;;;;;21.04;72.99;95972.47;4974844;28;20691;-67
2021/09/09 03:47:03;;;;;;;9.93;8.97;;;;;;;20.88;73.84;95972.00;4975260;28;20198;-68
2021/09/09 03:49:29;;;;;;;10.33;9.40;;;;;;;20.88;73.63;95971.19;4975206;28;20196;-68
2021/09/09 03:51:54;;;;;;;9.00;8.20;;;;;;;20.83;74.05;95966.78;4974247;28;20184;-67
2021/09/09 03:54:20;;;;;;;9.73;8.87;;;;;;;20.78;73.99;95974.88;4973420;28;20209;-67
2021/09/09 03:56:45;;;;;;;9.30;8.50;;;;;;;20.63;74.72;95971.75;4975097;28;20173;-68
2021/09/09 03:59:11;;;;;;;9.23;8.43;;;;;;;20.52;75.23;95973.81;4975342;28;20208;-67
2021/09/09 04:01:36;;;;;;;9.83;8.90;;;;;;;20.42;75.78;95974.00;4975077;28;20637;-68
2021/09/09 04:04:01;;;;;;;10.87;9.77;;;;;;;20.31;75.82;95975.28;4974569;28;20174;-67
2021/09/09 04:06:27;;;;;;;10.37;9.30;;;;;;;20.51;75.09;95974.13;4974593;28;20206;-69
2021/09/09 04:08:52;;;;;;;10.10;9.13;;;;;;;20.41;75.53;95978.56;4974706;28;20170;-68
2021/09/09 04:11:17;;;;;;;9.50;8.60;;;;;;;20.38;75.69;95975.72;4975029;28;20182;-68
2021/09/09 04:13:43;;;;;;;10.37;9.47;;;;;;;20.43;75.20;95975.59;4974321;28;20174;-67
2021/09/09 04:16:08;;;;;;;11.57;9.17;;;;;;;20.55;75.14;95975.09;4974743;28;20544;-67
2021/09/09 04:18:33;;;;;;;9.40;8.60;;;;;;;20.60;74.56;95970.44;4974861;28;20256;-66
2021/09/09 04:20:59;;;;;;;9.43;8.60;;;;;;;20.69;74.20;95967.88;4974533;28;20645;-69
2021/09/09 04:23:24;;;;;;;9.70;8.90;;;;;;;20.55;74.55;95975.88;4974311;28;20182;-68
2021/09/09 04:25:50;;;;;;;9.80;9.00;;;;;;;20.64;74.10;95974.09;4974743;28;20288;-66
2021/09/09 04:28:15;;;;;;;9.60;8.80;;;;;;;20.73;73.93;95974.97;4974803;28;20228;-67
2021/09/09 04:30:40;;;;;;;9.77;8.60;;;;;;;20.79;73.63;95970.31;4974598;28;20178;-66
2021/09/09 04:33:06;;;;;;;8.83;8.13;;;;;;;20.88;73.43;95973.88;4974207;28;20567;-66
2021/09/09 04:35:31;;;;;;;9.03;8.23;;;;;;;20.90;73.33;95982.38;4974478;28;20208;-66
2021/09/09 04:37:56;;;;;;;10.07;9.17;;;;;;;20.88;73.10;95980.00;4974371;28;20205;-67
2021/09/09 04:40:22;;;;;;;9.93;8.73;;;;;;;20.90;72.95;95977.03;4974465;28;20657;-68
2021/09/09 04:42:47;;;;;;;9.60;8.70;;;;;;;20.86;73.39;95982.19;4973736;28;20216;-68
2021/09/09 04:45:12;;;;;;;9.43;8.53;;;;;;;20.94;73.00;95981.50;4973503;28;20209;-68
2021/09/09 04:47:38;;;;;;;9.63;8.03;;;;;;;20.91;73.00;95983.94;4974313;28;20240;-68
2021/09/09 04:50:05;;;;;;;9.90;9.10;;;;;;;20.78;73.29;95979.44;4974706;28;20228;-68
2021/09/09 04:52:30;;;;;;;9.47;8.77;;;;;;;20.84;73.32;95983.56;4974301;28;20174;-67
2021/09/09 04:54:55;;;;;;;10.00;9.10;;;;;;;20.70;73.60;95978.25;4973916;28;20933;-68
2021/09/09 04:57:21;;;;;;;11.10;8.83;;;;;;;20.72;73.98;95976.09;4973124;28;20268;-68
2021/09/09 04:59:46;;;;;;;9.53;8.77;;;;;;;20.77;73.45;95973.31;4974008;28;20217;-67
2021/09/09 05:02:11;;;;;;;10.03;9.13;;;;;;;20.72;73.54;95978.75;4974443;28;20182;-67
2021/09/09 05:04:38;;;;;;;10.23;9.23;;;;;;;20.76;73.38;95976.28;4977160;28;20277;-67
2021/09/09 05:07:04;;;;;;;9.10;8.40;;;;;;;20.55;74.42;95980.44;4977991;28;20198;-68
2021/09/09 05:09:31;;;;;;;10.03;9.13;;;;;;;20.48;74.45;95981.63;4978277;28;20479;-68
2021/09/09 05:11:56;;;;;;;9.90;9.10;;;;;;;20.51;74.42;95987.47;4978096;28;20181;-68
2021/09/09 05:14:21;;;;;;;9.53;8.63;;;;;;;20.46;74.79;95983.00;4977487;28;20410;-67
2021/09/09 05:16:47;;;;;;;10.27;9.37;;;;;;;20.43;74.60;95980.94;4977844;28;20270;-68
2021/09/09 05:19:12;;;;;;;10.17;9.17;;;;;;;20.62;74.18;95986.19;4978032;28;20182;-68
2021/09/09 05:21:37;;;;;;;10.23;9.20;;;;;;;20.62;74.45;95983.53;4977854;28;20178;-67
2021/09/09 05:24:03;;;;;;;9.83;9.00;;;;;;;20.73;73.98;95985.66;4976218;28;20733;-68
2021/09/09 05:26:29;;;;;;;9.10;8.30;;;;;;;20.85;73.41;95995.84;4977570;28;20710;-67
2021/09/09 05:28:54;;;;;;;9.97;9.00;;;;;;;20.67;73.76;95996.75;4977733;28;20178;-67
2021/09/09 05:31:19;;;;;;;9.40;8.60;;;;;;;20.65;74.15;95991.72;4977376;28;20224;-68
2021/09/09 05:33:45;;;;;;;9.80;8.77;;;;;;;20.63;73.62;95993.09;4977424;28;20257;-67
2021/09/09 05:36:10;;;;;;;10.13;9.23;;;;;;;20.65;73.92;96002.41;4977580;28;20228;-67
2021/09/09 05:38:35;;;;;;;9.37;8.43;;;;;;;20.71;73.84;95998.53;4977486;28;20170;-67
2021/09/09 05:41:01;;;;;;;8.97;8.13;;;;;;;20.65;73.11;95998.94;4977380;28;20210;-67
2021/09/09 05:43:26;;;;;;;10.10;9.20;;;;;;;20.66;73.38;96001.31;4977026;28;20178;-67
2021/09/09 05:45:51;;;;;;;9.13;8.40;;;;;;;20.78;73.02;96000.81;4976751;28;20201;-67
2021/09/09 05:48:17;;;;;;;9.00;8.20;;;;;;;20.91;72.44;96010.66;4976805;28;20208;-68
2021/09/09 05:50:43;;;;;;;9.10;8.30;;;;;;;20.84;72.54;95999.59;4977159;28;20174;-67
2021/09/09 05:53:09;;;;;;;8.67;7.87;;;;;;;20.60;73.21;96001.72;4976806;28;20293;-67
2021/09/09 05:55:34;;;;;;;8.77;7.90;;;;;;;20.70;73.05;96009.50;4977204;28;20519;-68
2021/09/09 05:57:59;;;;;;;9.33;8.43;;;;;;;20.66;72.80;96011.19;4977030;28;20170;-66
2021/09/09 06:00:25;;;;;;;9.00;8.20;;;;;;;20.75;73.09;96009.41;4977177;28;20182;-67
2021/09/09 06:02:51;;;;;;;9.40;8.50;;;;;;;20.72;72.83;96002.00;4975201;28;20174;-68
2021/09/09 06:05:17;;;;;;;8.67;7.80;;;;;;;20.91;72.63;96014.13;4976922;28;20202;-66
2021/09/09 06:07:42;;;;;;;9.63;8.67;;;;;;;20.79;72.67;96015.72;4976888;28;20293;-68
2021/09/09 06:10:09;;;;;;;9.67;8.87;;;;;;;20.68;73.76;96012.47;4976933;28;20505;-67
2021/09/09 06:12:34;;;;;;;8.97;8.17;;;;;;;20.57;73.67;96013.75;4976931;28;20170;-70
2021/09/09 06:14:59;;;;;;;8.83;8.03;;;;;;;20.66;73.88;96019.19;4975916;28;20996;-68
2021/09/09 06:17:25;;;;;;;10.00;9.20;;;;;;;20.78;73.45;96022.19;4976585;28;20178;-67
2021/09/09 06:19:50;;;;;;;8.03;7.30;;;;;;;20.98;72.96;96019.09;4976849;28;20232;-67
2021/09/09 06:22:16;;;;;;;9.60;8.80;;;;;;;20.92;72.92;96012.25;4976579;28;20173;-68
2021/09/09 06:24:42;;;;;;;10.43;9.53;;;;;;;20.88;72.97;96014.75;4976304;28;20431;-67
2021/09/09 06:27:07;;;;;;;9.03;8.13;;;;;;;20.80;73.23;96022.69;4976470;28;20206;-68
2021/09/09 06:29:32;;;;;;;9.23;8.43;;;;;;;21.13;72.48;96014.22;4976497;28;20174;-67
2021/09/09 06:31:58;;;;;;;9.77;8.93;;;;;;;20.89;73.13;96024.31;4976120;28;20180;-68
2021/09/09 06:34:23;;;;;;;9.50;8.70;;;;;;;21.17;73.06;96023.25;4975435;28;20188;-67
2021/09/09 06:36:49;;;;;;;9.60;8.77;;;;;;;21.00;72.86;96024.94;4976245;28;20261;-68
2021/09/09 06:39:14;;;;;;;15.73;9.17;;;;;;;21.00;73.07;96022.25;4976468;28;20174;-67
2021/09/09 06:41:44;;;;;;;10.40;9.40;;;;;;;20.83;73.31;96024.75;4976271;28;20174;-69
2021/09/09 06:44:12;;;;;;;9.47;8.70;;;;;;;20.94;73.88;96026.13;4975692;28;20181;-68
2021/09/09 06:46:38;;;;;;;9.10;8.20;;;;;;;20.92;74.27;96025.63;4975860;28;20461;-67
2021/09/09 06:49:04;;;;;;;9.93;8.97;;;;;;;21.01;74.03;96027.31;4966751;28;21054;-70
2021/09/09 06:51:30;;;;;;;10.00;9.10;;;;;;;21.23;73.53;96021.25;4971741;28;20430;-67
2021/09/09 06:53:55;;;;;;;10.03;9.10;;;;;;;21.05;74.08;96024.84;4975893;28;20233;-68
2021/09/09 06:56:21;;;;;;;10.60;9.70;;;;;;;21.10;74.47;96030.88;4976554;28;20425;-66
2021/09/09 06:58:46;;;;;;;9.13;8.23;;;;;;;21.17;74.81;96025.09;4974972;28;20265;-69
2021/09/09 07:01:11;;;;;;;9.37;8.57;;;;;;;21.38;74.19;96026.22;4976006;28;20178;-66
2021/09/09 07:03:37;;;;;;;9.33;8.50;;;;;;;21.57;73.58;96020.72;4975635;28;20213;-68
2021/09/09 07:06:02;;;;;;;9.60;8.83;;;;;;;21.50;73.51;96019.25;4975102;28;20198;-67
2021/09/09 07:08:27;;;;;;;9.67;8.80;;;;;;;21.40;73.37;96024.06;4975565;28;20182;-67
2021/09/09 07:10:53;;;;;;;10.83;8.83;;;;;;;21.62;73.24;96026.75;4974446;28;20181;-67
2021/09/09 07:13:20;;;;;;;9.23;8.53;;;;;;;21.78;72.88;96019.94;4975349;28;20185;-68
2021/09/09 07:15:46;;;;;;;9.43;8.50;;;;;;;21.74;72.55;96029.66;4975307;28;20198;-70
2021/09/09 07:18:11;;;;;;;9.03;8.30;;;;;;;21.67;73.54;96025.84;4975773;28;20464;-69
2021/09/09 07:20:37;;;;;;;9.57;8.77;;;;;;;21.83;72.83;96022.50;4975531;28;20525;-69
2021/09/09 07:23:02;;;;;;;10.13;8.93;;;;;;;21.89;72.38;96015.16;4974927;28;20177;-68
2021/09/09 07:25:27;;;;;;;10.00;9.07;;;;;;;22.01;71.78;96021.53;4956113;28;20667;-67
2021/09/09 07:27:53;;;;;;;10.37;8.83;;;;;;;22.32;71.20;96030.38;4955431;28;20198;-67
2021/09/09 07:30:18;;;;;;;9.43;8.43;;;;;;;22.27;71.24;96037.75;4956347;28;20635;-66
2021/09/09 07:32:43;;;;;;;9.60;8.33;;;;;;;22.30;70.42;96035.22;4955788;28;20186;-68
2021/09/09 07:35:10;;;;;;;8.33;7.53;;;;;;;22.39;70.75;96032.63;4956183;28;20278;-67
2021/09/09 07:37:36;;;;;;;8.67;7.73;;;;;;;22.39;70.35;96036.06;4956042;28;20327;-67
2021/09/09 07:40:02;;;;;;;9.20;8.33;;;;;;;22.36;70.15;96039.38;4973892;28;20466;-69
2021/09/09 07:42:27;;;;;;;10.00;8.90;;;;;;;22.56;70.04;96038.06;4975300;28;20606;-66
2021/09/09 07:44:53;;;;;;;9.40;8.57;;;;;;;22.62;69.46;96049.44;4974293;28;20441;-67
2021/09/09 07:47:18;;;;;;;9.27;8.37;;;;;;;22.50;68.93;96042.75;4974348;28;20209;-67
2021/09/09 07:49:44;;;;;;;9.13;8.23;;;;;;;22.65;69.01;96043.47;4970866;28;20182;-67
2021/09/09 07:52:09;;;;;;;9.07;8.37;;;;;;;22.86;68.50;96050.66;4971673;28;20216;-64
2021/09/09 07:54:34;;;;;;;8.70;8.10;;;;;;;23.14;69.03;96056.53;4971333;28;20198;-65
2021/09/09 07:57:00;;;;;;;9.10;8.40;;;;;;;23.34;67.70;96053.28;4971426;28;20183;-63
2021/09/09 07:59:26;;;;;;;8.13;7.43;;;;;;;23.28;68.01;96062.56;4971623;28;20228;-64
2021/09/09 08:01:51;;;;;;;8.90;8.10;;;;;;;23.43;67.77;96062.94;4971059;28;20177;-63
2021/09/09 08:04:17;;;;;;;9.07;8.27;;;;;;;23.46;66.44;96061.53;4971030;28;20428;-63
2021/09/09 08:06:44;;;;;;;8.20;7.40;;;;;;;23.43;66.54;96062.94;4971543;28;20207;-64
2021/09/09 08:09:10;;;;;;;8.50;7.83;;;;;;;23.39;66.15;96061.19;4971628;28;20174;-64
2021/09/09 08:11:35;;;;;;;8.80;8.10;;;;;;;23.38;66.56;96064.97;4970436;28;20436;-65
2021/09/09 08:14:01;;;;;;;8.23;7.60;;;;;;;23.48;66.15;96067.34;4970867;28;21101;-63
2021/09/09 08:16:28;;;;;;;8.60;7.43;;;;;;;23.52;65.27;96070.22;4970584;28;20194;-63
2021/09/09 08:18:53;;;;;;;8.20;7.40;;;;;;;23.44;63.80;96083.28;4971262;28;20202;-65
2021/09/09 08:21:19;;;;;;;11.13;7.80;;;;;;;23.09;65.19;96070.88;4971339;28;20500;-65
2021/09/09 08:23:45;;;;;;;11.17;7.60;;;;;;;23.32;64.85;96072.38;4970446;28;20233;-66
2021/09/09 08:26:11;;;;;;;10.60;7.50;;;;;;;23.45;64.90;96067.97;4971117;28;20198;-65
2021/09/09 08:28:38;;;;;;;8.33;7.53;;;;;;;23.47;65.25;96065.78;4971243;28;20480;-63
2021/09/09 08:31:04;;;;;;;10.23;7.50;;;;;;;23.50;64.51;96075.09;4970570;28;20196;-65
2021/09/09 08:33:30;;;;;;;8.50;7.70;;;;;;;23.46;65.60;96070.34;4970665;28;20440;-63
2021/09/09 08:35:55;;;;;;;10.60;7.17;;;;;;;23.60;64.26;96074.78;4970557;28;20971;-64
2021/09/09 08:38:20;;;;;;;7.60;6.90;;;;;;;23.52;64.20;96079.03;4970740;28;20417;-65
2021/09/09 08:40:50;;;;;;;8.20;7.47;;;;;;;23.61;63.96;96079.06;4971247;28;20579;-62
2021/09/09 08:43:16;;;;;;;7.60;7.00;;;;;;;23.54;63.67;96082.19;4951571;28;20174;-62
2021/09/09 08:45:41;;;;;;;9.20;8.30;;;;;;;23.46;64.32;96081.06;4951606;28;20441;-62
2021/09/09 08:48:08;;;;;;;8.57;7.83;;;;;;;23.48;64.47;96084.22;4970146;28;20204;-63
2021/09/09 08:50:34;;;;;;;7.87;7.17;;;;;;;23.55;65.24;96091.84;4970943;28;20548;-63
2021/09/09 08:53:01;;;;;;;7.93;7.33;;;;;;;23.83;64.60;96086.94;4970592;28;20414;-64
2021/09/09 08:55:27;;;;;;;8.57;7.83;;;;;;;23.95;64.03;96097.84;4970703;28;20202;-64
2021/09/09 08:57:54;;;;;;;7.87;7.27;;;;;;;23.98;63.50;96107.94;4972882;28;20421;-66
2021/09/09 09:00:19;;;;;;;7.90;7.20;;;;;;;24.01;63.51;96108.13;4974237;28;20677;-67
2021/09/09 09:02:52;;;;;;;8.17;7.00;;;;;;;24.06;62.86;96099.91;4973711;28;20509;-67
2021/09/09 09:05:19;;;;;;;8.80;7.07;;;;;;;24.11;61.94;96104.34;4974515;28;20248;-67
2021/09/09 09:07:44;;;;;;;7.70;7.03;;;;;;;24.20;62.69;96100.53;4974296;28;20461;-67
2021/09/09 09:10:10;;;;;;;7.70;7.10;;;;;;;24.39;63.15;96098.28;4974478;28;20416;-63
2021/09/09 09:12:39;;;;;;;8.00;7.30;;;;;;;24.31;62.37;96107.13;4974174;28;20629;-65
2021/09/09 09:15:26;;;;;;;8.70;7.80;;;;;;;24.46;62.15;96103.97;4974297;28;20190;-63
2021/09/09 09:17:55;;;;;;;8.30;7.70;;;;;;;24.44;62.59;96103.47;4963538;28;20428;-66
2021/09/09 09:20:21;;;;;;;10.30;8.17;;;;;;;24.49;63.20;96107.91;4973904;28;20453;-67
2021/09/09 09:22:47;;;;;;;8.70;8.00;;;;;;;24.53;63.01;96108.06;4972663;28;20468;-63
2021/09/09 09:25:13;;;;;;;9.00;8.20;;;;;;;24.64;63.42;96106.59;4974096;28;20853;-66
2021/09/09 09:27:46;;;;;;;8.50;7.50;;;;;;;24.58;63.25;96110.56;4974213;28;20194;-66
2021/09/09 09:30:12;;;;;;;8.03;7.30;;;;;;;24.59;62.20;96101.38;4974036;28;20432;-66
2021/09/09 09:32:49;;;;;;;8.33;7.53;;;;;;;24.79;62.96;96111.47;4973677;28;20896;-63
2021/09/09 09:35:17;;;;;;;9.07;7.70;;;;;;;24.84;62.51;96108.63;4973308;28;20449;-66
2021/09/09 09:38:07;;;;;;;7.40;6.80;;;;;;;24.90;62.55;96108.13;4973662;28;20453;-62
2021/09/09 09:40:40;;;;;;;8.80;7.97;;;;;;;25.04;61.55;96103.31;4973806;28;20453;-66
2021/09/09 09:43:08;;;;;;;10.13;7.23;;;;;;;24.96;59.81;96109.53;4972672;28;20424;-63
2021/09/09 09:45:34;;;;;;;7.37;6.67;;;;;;;25.13;59.81;96103.28;4972370;28;20465;-63
2021/09/09 09:47:59;;;;;;;8.03;7.17;;;;;;;25.11;59.99;96098.22;4973655;28;20952;-66
2021/09/09 09:50:24;;;;;;;9.43;6.90;;;;;;;25.22;58.35;96104.78;4974469;28;20494;-66
2021/09/09 09:53:14;;;;;;;6.83;6.23;;;;;;;25.36;57.89;96094.59;4976709;28;20174;-67
2021/09/09 09:55:44;;;;;;;6.37;5.87;;;;;;;25.42;57.56;96097.91;4977010;28;20217;-67
2021/09/09 09:58:10;;;;;;;7.20;6.50;;;;;;;25.55;56.54;96101.47;4976803;28;20425;-66
2021/09/09 10:00:36;;;;;;;7.10;6.10;;;;;;;25.52;56.37;96100.22;4975454;28;20499;-68
2021/09/09 10:03:01;;;;;;;7.13;6.53;;;;;;;25.49;56.53;96103.59;4975382;28;20178;-66
2021/09/09 10:05:28;;;;;;;6.30;5.70;;;;;;;25.56;56.61;96098.47;4976817;28;20551;-67
2021/09/09 10:07:54;;;;;;;7.03;6.43;;;;;;;25.59;55.21;96097.81;4976659;28;20201;-63
2021/09/09 10:10:22;;;;;;;7.17;6.67;;;;;;;25.62;55.66;96101.75;4976341;28;20428;-67
2021/09/09 10:12:49;;;;;;;7.13;6.53;;;;;;;25.72;55.38;96104.03;4976468;28;20178;-66
2021/09/09 10:15:15;;;;;;;6.40;5.90;;;;;;;25.60;55.52;96110.13;4976494;28;20488;-63
2021/09/09 10:17:41;;;;;;;6.07;5.50;;;;;;;25.79;55.73;96107.78;4975199;28;20410;-63
2021/09/09 10:20:29;;;;;;;6.40;5.80;;;;;;;25.97;56.12;96103.84;4976303;28;20417;-63
2021/09/09 10:23:05;;;;;;;6.23;5.73;;;;;;;25.96;54.50;96101.50;4974857;28;20418;-68
2021/09/09 10:25:52;;;;;;;7.07;6.47;;;;;;;26.01;55.06;96099.38;4975864;28;20531;-67
2021/09/09 11:46:21;;;;;;;6.90;5.00;;;;;;;27.53;49.78;96069.44;4784652;30;20473;-68
2021/09/09 11:48:54;;;;;;;5.23;4.77;;;;;;;27.46;48.74;96083.53;4745168;30;20493;-68
2021/09/09 11:51:58;;;;;;;6.20;5.60;;;;;;;27.40;49.04;96082.97;4772751;30;20471;-65
2021/09/09 11:54:31;;;;;;;6.17;5.23;;;;;;;27.47;50.56;96076.97;4775937;29;20438;-67
2021/09/09 11:57:05;;;;;;;6.07;5.57;;;;;;;27.73;50.29;96088.19;4786730;30;20892;-64
2021/09/09 11:59:32;;;;;;;5.83;5.27;;;;;;;27.86;51.30;96091.66;4786466;30;20517;-64
2021/09/09 12:02:09;;;;;;;6.10;5.50;;;;;;;27.68;49.23;96084.94;4786126;30;20433;-67
2021/09/09 12:04:40;;;;;;;6.10;5.60;;;;;;;27.52;49.22;96084.84;4786121;30;20449;-64
2021/09/09 12:07:07;;;;;;;6.40;5.90;;;;;;;27.47;51.18;96082.38;4786374;29;20506;-68
2021/09/09 12:09:37;;;;;;;5.83;5.23;;;;;;;27.65;49.28;96081.00;4786379;30;20427;-67
2021/09/09 12:12:09;;;;;;;6.90;6.20;;;;;;;27.69;48.14;96086.50;4825072;29;20472;-64
2021/09/09 12:14:36;;;;;;;5.77;5.27;;;;;;;27.48;47.51;96083.19;4839686;29;20902;-67
2021/09/09 12:17:15;;;;;;;6.50;5.53;;;;;;;27.55;47.51;96081.47;4840646;29;20796;-67
2021/09/09 12:19:55;;;;;;;6.87;6.27;;;;;;;27.54;47.15;96085.28;4910406;29;20472;-64
2021/09/09 12:22:40;;;;;;;6.43;5.60;;;;;;;27.36;47.53;96084.75;4950427;28;20445;-65
2021/09/09 12:25:35;;;;;;;6.93;6.30;;;;;;;27.39;47.20;96077.91;4974462;28;20433;-67
2021/09/09 12:28:13;;;;;;;7.00;6.30;;;;;;;27.61;47.39;96076.63;4973771;28;20524;-65
2021/09/09 12:31:02;;;;;;;6.87;6.27;;;;;;;27.61;48.28;96080.09;4974497;28;20433;-64
2021/09/09 12:33:35;;;;;;;6.50;5.90;;;;;;;27.62;47.21;96084.38;4972985;28;20418;-64
2021/09/09 12:36:05;;;;;;;6.00;5.60;;;;;;;27.46;46.82;96078.13;4974514;28;20499;-64
2021/09/09 12:38:37;;;;;;;6.17;5.60;;;;;;;27.51;47.75;96077.09;4974060;28;20430;-67
2021/09/09 12:41:05;;;;;;;6.23;5.73;;;;;;;27.69;48.29;96081.09;4973184;28;20833;-67
2021/09/09 12:43:37;;;;;;;6.37;5.77;;;;;;;27.61;46.93;96077.41;4973994;28;20513;-67
2021/09/09 12:46:04;;;;;;;5.93;5.53;;;;;;;27.25;46.72;96077.41;4974242;28;20504;-64
2021/09/09 12:48:31;;;;;;;6.40;5.80;;;;;;;27.60;47.17;96065.03;4973926;28;20473;-68